Latest Weather Observations for Laverton

IDW60801

Issued at 4:33 pm WST Friday 20 October 2017 (issued every 30 minutes, with the page automatically refreshed every 10 minutes)

About weather observations | Map of weather stations | Latest weather observations for WA | Other Formats
Station Details ID: 012305 Name: LAVERTON AERO Lat: -28.61 Lon: 122.42 Height: 464.3 m
Data from the previous 72 hours. | See also: Recent months at Laverton
Date/Time
WST
Temp
°C
App
Temp
°C
Dew
Point
°C
Rel
Hum
%
Delta-T
°C
Wind Press
QNH
hPa
Press
MSL
hPa
Rain since
9am
mm
Dir  Spd
km/h
Gust
km/h
Spd
kts
Gust
kts
20/04:30pm 27.3 21.0 5.6 25 11.4 E 28 37 15 20 1022.6 1020.7 0.0
20/04:00pm 27.6 21.2 5.2 24 11.7 E 28 39 15 21 1022.4 1020.5 0.0
20/03:30pm 27.8 21.3 4.8 23 12.0 E 28 37 15 20 1022.6 1020.7 0.0
20/03:00pm 28.1 21.3 5.0 23 12.1 E 30 43 16 23 1022.7 1020.8 0.0
20/02:30pm 27.7 20.8 4.7 23 12.0 E 30 41 16 22 1023.2 1021.3 0.0
20/02:00pm 27.7 20.4 4.7 23 12.0 E 32 44 17 24 1023.6 1021.7 0.0
20/01:39pm 27.0 20.0 4.1 23 11.8 ESE 30 48 16 26 1023.7 1021.8 0.0
20/01:30pm 26.9 20.4 4.6 24 11.6 E 28 43 15 23 1023.9 1022.0 0.0
20/01:00pm 26.4 19.5 4.8 25 11.2 E 30 48 16 26 1024.3 1022.4 0.0
20/12:30pm 25.6 19.2 5.2 27 10.6 E 28 44 15 24 1024.9 1023.0 0.0
20/12:00pm 25.1 18.2 4.8 27 10.4 ESE 30 44 16 24 1025.2 1023.3 0.0
20/11:30am 24.8 18.8 5.1 28 10.2 ESE 26 37 14 20 1025.8 1023.9 0.0
20/11:00am 23.9 17.5 5.3 30 9.5 ESE 28 39 15 21 1026.3 1024.4 0.0
20/10:30am 22.5 16.1 5.0 32 8.9 ESE 28 39 15 21 1026.9 1025.0 0.0
20/10:00am 21.4 14.2 4.9 34 8.3 ESE 32 43 17 23 1027.3 1025.5 0.0
20/09:30am 20.8 13.7 5.6 37 7.7 ESE 32 41 17 22 1027.7 1025.9 0.0
20/09:00am 19.6 12.6 6.0 41 6.9 ESE 32 43 17 23 1028.1 1026.2 0.0
20/08:30am 17.8 11.1 5.7 45 6.0 ESE 30 37 16 20 1028.3 1026.4 0.0
20/08:00am 17.0 9.9 5.6 47 5.6 E 32 39 17 21 1028.3 1026.4 0.0
20/07:30am 16.3 8.7 5.6 49 5.3 E 35 43 19 23 1028.2 1026.3 0.0
20/07:00am 15.1 7.8 5.3 52 4.7 E 33 44 18 24 1027.6 1025.8 0.0
20/06:30am 14.3 7.0 5.4 55 4.3 E 33 44 18 24 1027.3 1025.5 0.0
20/06:00am 13.4 6.0 5.1 57 3.9 ESE 33 44 18 24 1027.3 1025.5 0.0
20/05:30am 12.9 6.0 4.6 57 3.9 ESE 30 39 16 21 1026.9 1025.0 0.0
20/05:00am 13.1 6.9 4.3 55 4.1 ESE 26 33 14 18 1026.7 1024.8 0.0
20/04:30am 13.5 6.9 4.1 53 4.4 ESE 28 33 15 18 1026.5 1024.6 0.0
20/04:00am 13.8 8.3 4.1 52 4.5 ESE 22 32 12 17 1026.3 1024.4 0.0
20/03:30am 14.2 8.7 3.9 50 4.8 SE 22 30 12 16 1026.0 1024.1 0.0
20/03:00am 14.7 8.8 3.8 48 5.1 SE 24 33 13 18 1025.9 1024.0 0.0
20/02:30am 15.2 9.3 3.7 46 5.4 ESE 24 35 13 19 1025.7 1023.8 0.0
20/02:00am 15.7 9.4 3.5 44 5.7 ESE 26 35 14 19 1025.5 1023.7 0.0
20/01:30am 16.3 9.2 3.4 42 6.1 ESE 30 39 16 21 1025.8 1023.9 0.0
20/01:00am 16.8 10.0 3.1 40 6.4 ESE 28 39 15 21 1025.9 1024.0 0.0
20/12:30am 17.3 11.6 2.9 38 6.8 ESE 22 28 12 15 1025.8 1023.9 0.0
20/12:00am 17.6 12.3 2.8 37 6.9 ESE 20 28 11 15 1026.2 1024.3 0.0
 
Date/Time
WST
Temp
°C
App
Temp
°C
Dew
Point
°C
Rel
Hum
%
Delta-T
°C
Wind Press
QNH
hPa
Press
MSL
hPa
Rain since
9am
mm
Dir  Spd
km/h
Gust
km/h
Spd
kts
Gust
kts
19/11:30pm 17.9 13.2 3.0 37 7.0 ESE 17 22 9 12 1026.5 1024.6 0.0
19/11:00pm 18.2 13.5 2.9 36 7.2 ESE 17 22 9 12 1026.4 1024.5 0.0
19/10:30pm 18.7 13.6 2.9 35 7.5 ESE 19 28 10 15 1026.5 1024.6 0.0
19/10:00pm 19.3 13.6 3.1 34 7.7 ESE 22 32 12 17 1026.4 1024.5 0.0
19/09:30pm 19.6 13.9 2.9 33 8.0 ESE 22 28 12 15 1026.3 1024.4 0.0
19/09:00pm 20.2 14.1 2.5 31 8.4 ESE 24 32 13 17 1026.1 1024.2 0.0
19/08:30pm 20.9 14.8 2.7 30 8.8 ESE 24 33 13 18 1025.8 1023.9 0.0
19/08:00pm 21.3 15.6 2.6 29 9.0 ESE 22 30 12 16 1025.4 1023.6 0.0
19/07:30pm 21.9 16.2 2.6 28 9.3 ESE 22 30 12 16 1025.1 1023.2 0.0
19/07:00pm 22.4 17.0 2.5 27 9.6 ESE 20 30 11 16 1024.9 1023.0 0.0
19/06:30pm 23.1 16.5 2.0 25 10.2 ESE 26 35 14 19 1024.3 1022.4 0.0
19/06:00pm 23.8 17.6 2.0 24 10.5 ESE 24 32 13 17 1023.8 1021.9 0.0
19/05:30pm 24.5 17.0 1.4 22 11.1 ESE 30 39 16 21 1023.1 1021.2 0.0
19/05:00pm 25.1 17.7 1.9 22 11.3 ESE 30 41 16 22 1022.7 1020.8 0.0
19/04:30pm 25.5 18.7 0.9 20 11.8 SE 26 35 14 19 1022.5 1020.6 0.0
19/04:00pm 25.8 19.1 1.2 20 11.9 ESE 26 35 14 19 1022.4 1020.5 0.0
19/03:30pm 25.5 18.3 0.9 20 11.8 ESE 28 43 15 23 1022.2 1020.3 0.0
19/03:00pm 25.6 18.8 1.0 20 11.8 ESE 26 39 14 21 1022.5 1020.6 0.0
19/02:30pm 25.0 18.1 2.4 23 11.1 ESE 28 37 15 20 1022.6 1020.7 0.0
19/02:00pm 25.5 19.6 4.0 25 10.9 ESE 24 33 13 18 1023.2 1021.3 0.0
19/01:30pm 25.6 19.5 4.7 26 10.8 SE 26 37 14 20 1023.6 1021.7 0.0
19/01:00pm 24.5 18.7 4.3 27 10.2 ESE 24 37 13 20 1024.1 1022.2 0.0
19/12:30pm 24.4 18.4 5.2 29 9.9 ESE 26 43 14 23 1024.4 1022.5 0.0
19/12:00pm 23.1 16.7 5.1 31 9.2 E 28 44 15 24 1024.8 1022.9 0.0
19/11:30am 22.9 16.5 5.3 32 9.0 E 28 39 15 21 1025.2 1023.3 0.0
19/11:00am 22.0 15.6 5.4 34 8.4 E 28 41 15 22 1025.5 1023.7 0.0
19/10:30am 21.1 14.8 5.5 36 7.9 ESE 28 43 15 23 1026.0 1024.1 0.0
19/10:00am 20.3 14.0 5.5 38 7.4 ESE 28 37 15 20 1026.1 1024.2 0.0
19/09:37am 19.5 12.3 5.2 39 7.1 ESE 32 52 17 28 1026.3 1024.4 0.0
19/09:30am 19.1 12.3 5.2 40 6.9 E 30 41 16 22 1026.4 1024.5 0.0
19/09:00am 18.3 10.9 5.2 42 6.5 ESE 33 43 18 23 1026.5 1024.6 0.0
19/08:30am 17.0 9.6 5.0 45 5.9 ESE 33 41 18 22 1026.3 1024.4 0.0
19/08:00am 16.1 7.9 4.5 46 5.5 E 37 48 20 26 1026.3 1024.4 0.0
19/07:30am 15.4 7.5 4.5 48 5.2 ESE 35 46 19 25 1026.1 1024.2 0.0
19/07:00am 14.6 7.3 4.6 51 4.7 ESE 32 43 17 23 1025.9 1024.0 0.0
19/06:30am 13.3 5.4 4.2 54 4.3 ESE 35 50 19 27 1025.2 1023.3 0.0
19/06:15am 12.9 5.3 4.1 55 4.1 ESE 33 52 18 28 1025.0 1023.1 0.0
19/06:00am 12.8 4.9 4.3 56 3.9 ESE 35 46 19 25 1024.8 1022.9 0.0
19/05:30am 12.5 3.7 3.7 55 4.0 ESE 39 52 21 28 1024.2 1022.3 0.0
19/05:00am 12.9 5.0 4.6 57 3.9 ESE 35 56 19 30 1023.6 1021.7 0.0
19/04:58am 12.8 5.4 4.8 58 3.8 ESE 33 54 18 29 1023.6 1021.7 0.0
19/04:30am 13.5 6.7 5.2 57 4.0 ESE 30 43 16 23 1022.9 1021.0 0.0
19/04:00am 14.1 7.0 6.2 59 3.9 ESE 33 50 18 27 1022.3 1020.4 0.0
19/03:55am 14.2 7.3 6.3 59 3.9 ESE 32 50 17 27 1022.1 1020.2 0.0
19/03:30am 14.8 7.9 6.4 57 4.2 ESE 32 46 17 25 1021.7 1019.8 0.0
19/03:28am 14.8 8.3 6.4 57 4.2 ESE 30 46 16 25 1021.7 1019.8 0.0
19/03:00am 15.4 10.2 3.5 45 5.6 ESE 20 28 11 15 1021.5 1019.5 0.0
19/02:30am 16.0 10.9 0.6 35 6.8 SE 17 24 9 13 1021.1 1019.1 0.0
19/02:00am 14.2 10.5 2.1 44 5.4 SE 11 15 6 8 1020.8 1018.9 0.0
19/01:30am 14.6 11.4 2.8 45 5.4 SE 9 11 5 6 1020.6 1018.7 0.0
19/01:00am 14.9 11.7 2.8 44 5.5 SSE 9 11 5 6 1020.6 1018.7 0.0
19/12:30am 15.3 12.1 3.1 44 5.7 SSE 9 11 5 6 1020.7 1018.8 0.0
19/12:00am 16.0 12.8 3.1 42 6.0 SSE 9 11 5 6 1020.8 1018.9 0.0
 
Date/Time
WST
Temp
°C
App
Temp
°C
Dew
Point
°C
Rel
Hum
%
Delta-T
°C
Wind Press
QNH
hPa
Press
MSL
hPa
Rain since
9am
mm
Dir  Spd
km/h
Gust
km/h
Spd
kts
Gust
kts
18/11:30pm 17.1 13.6 3.4 40 6.5 SSE 11 13 6 7 1020.9 1019.0 0.0
18/11:00pm 17.4 13.5 3.3 39 6.7 SSE 13 15 7 8 1020.9 1019.0 0.0
18/10:30pm 17.5 14.4 3.4 39 6.7 SSE 9 11 5 6 1020.9 1019.0 0.0
18/10:00pm 18.4 15.2 3.1 36 7.3 S 9 11 5 6 1020.9 1019.0 0.0
18/09:30pm 19.5 15.9 2.8 33 8.0 S 11 15 6 8 1020.8 1018.9 0.0
18/09:00pm 19.9 15.9 2.7 32 8.2 S 13 17 7 9 1020.6 1018.7 0.0
18/08:30pm 20.6 16.9 2.4 30 8.7 S 11 15 6 8 1020.4 1018.5 0.0
18/08:00pm 21.3 17.3 2.6 29 9.0 S 13 19 7 10 1020.1 1018.2 0.0
18/07:30pm 22.0 17.5 2.2 27 9.5 SSE 15 17 8 9 1019.7 1017.8 0.0
18/07:00pm 22.6 17.8 2.7 27 9.7 SSE 17 20 9 11 1019.2 1017.2 0.0
18/06:30pm 23.2 18.2 3.7 28 9.7 S 19 22 10 12 1018.6 1016.7 0.0
18/06:00pm 23.8 18.6 3.7 27 10.0 SSE 20 26 11 14 1018.0 1016.1 0.0
18/05:30pm 24.6 20.0 3.8 26 10.5 S 17 26 9 14 1017.5 1015.5 0.0
18/05:00pm 24.7 19.8 3.9 26 10.5 S 19 30 10 16 1017.0 1015.0 0.0
18/04:30pm 25.5 21.0 4.0 25 10.9 S 17 28 9 15 1016.6 1014.6 0.0
18/04:00pm 25.4 20.7 3.4 24 11.0 SSW 17 28 9 15 1016.3 1014.4 0.0
18/03:30pm 24.8 20.4 2.9 24 10.9 S 15 28 8 15 1016.1 1014.2 0.0
18/03:00pm 25.5 21.1 2.9 23 11.3 SSW 15 28 8 15 1016.0 1014.1 0.0
18/02:30pm 25.4 20.6 2.8 23 11.2 SW 17 26 9 14 1016.0 1014.1 0.0
18/02:00pm 25.5 20.3 2.2 22 11.5 SSW 19 30 10 16 1016.1 1014.2 0.0
18/01:30pm 25.4 20.2 2.2 22 11.4 SW 19 30 10 16 1016.5 1014.5 0.0
18/01:00pm 24.8 20.1 2.9 24 10.9 SW 17 24 9 13 1016.7 1014.7 0.0
18/12:30pm 23.9 18.7 2.7 25 10.4 SW 19 32 10 17 1017.1 1015.1 0.0
18/12:00pm 22.8 19.0 3.9 29 9.4 SW 13 26 7 14 1017.3 1015.3 0.0
18/11:30am 22.6 18.5 4.2 30 9.2 WSW 15 28 8 15 1017.6 1015.6 0.0
18/11:00am 21.9 17.1 4.5 32 8.7 WSW 19 32 10 17 1017.9 1016.0 0.0
18/10:30am 21.1 16.2 5.1 35 8.1 SW 20 35 11 19 1018.0 1016.1 0.0
18/10:00am 21.5 17.3 5.8 36 8.0 SSW 17 30 9 16 1018.1 1016.2 0.0
18/09:30am 20.7 16.1 5.5 37 7.7 SSW 19 28 10 15 1018.2 1016.3 0.0
18/09:00am 19.5 14.8 5.2 39 7.1 S 19 30 10 16 1018.1 1016.2 0.0
18/08:30am 19.2 14.3 5.3 40 6.9 SSW 20 28 11 15 1017.9 1016.0 0.0
18/08:00am 18.9 13.2 4.7 39 7.0 SSW 24 32 13 17 1017.6 1015.6 0.0
18/07:30am 18.2 12.1 4.7 41 6.6 SSW 26 37 14 20 1017.1 1015.1 0.0
18/07:00am 17.8 12.2 5.4 44 6.1 SSW 24 35 13 19 1016.7 1014.7 0.0
18/06:30am 16.7 10.7 5.3 47 5.6 SSW 26 37 14 20 1016.3 1014.4 0.0
18/06:00am 16.0 11.5 5.9 51 5.0 SSW 19 28 10 15 1016.0 1014.1 0.0
18/05:30am 15.7 11.0 5.9 52 4.8 SSW 20 30 11 16 1015.3 1013.3 0.0
18/05:00am 16.0 10.1 5.6 50 5.1 SSW 26 33 14 18 1014.7 1012.7 0.0
18/04:30am 16.8 10.8 5.4 47 5.6 SW 26 39 14 21 1013.9 1012.0 0.0
18/04:00am 17.1 12.8 5.4 46 5.8 SW 17 24 9 13 1013.4 1011.4 0.0
18/03:30am 17.0 13.8 5.0 45 5.9 SW 11 15 6 8 1012.9 1010.9 0.0
18/03:00am 17.6 13.6 4.9 43 6.2 SW 15 20 8 11 1012.5 1010.5 0.0
18/02:30am 18.1 14.4 4.7 41 6.6 SW 13 20 7 11 1012.3 1010.3 0.0
18/02:00am 18.0 14.7 4.6 41 6.6 SSW 11 17 6 9 1012.1 1010.1 0.0
18/01:30am 18.0 15.4 4.2 40 6.7 SSW 7 11 4 6 1012.1 1010.1 0.0
18/01:00am 18.6 14.8 4.0 38 7.1 SW 13 17 7 9 1012.2 1010.2 0.0
18/12:30am 19.0 15.1 3.2 35 7.6 SW 13 17 7 9 1012.1 1010.1 0.0
18/12:00am 18.7 14.7 2.9 35 7.5 SW 13 17 7 9 1012.2 1010.2 0.0
 
Date/Time
WST
Temp
°C
App
Temp
°C
Dew
Point
°C
Rel
Hum
%
Delta-T
°C
Wind Press
QNH
hPa
Press
MSL
hPa
Rain since
9am
mm
Dir  Spd
km/h
Gust
km/h
Spd
kts
Gust
kts
17/11:30pm 15.3 14.2 5.0 50 5.0 CALM 0 0 0 0 1012.2 1010.2 0.0
17/11:00pm 16.3 15.2 5.0 47 5.5 CALM 0 0 0 0 1012.1 1010.1 0.0
17/10:30pm 16.8 15.5 4.2 43 6.1 CALM 0 0 0 0 1012.3 1010.3 0.0
17/10:00pm 17.8 16.6 4.4 41 6.5 CALM 0 0 0 0 1012.4 1010.4 0.0
17/09:30pm 19.0 17.4 2.4 33 7.8 CALM 0 0 0 0 1012.5 1010.5 0.0
17/09:00pm 20.0 16.6 1.9 30 8.5 W 9 11 5 6 1012.6 1010.6 0.0
17/08:30pm 21.1 17.3 1.9 28 9.1 WNW 11 13 6 7 1012.4 1010.4 0.0
17/08:00pm 20.6 17.4 2.9 31 8.5 NNW 9 11 5 6 1012.2 1010.2 0.0
17/07:30pm 21.8 18.0 2.0 27 9.5 NNW 11 11 6 6 1011.7 1009.7 0.0
17/07:00pm 23.4 19.9 1.1 23 10.6 NNW 9 13 5 7 1011.3 1009.3 0.0
17/06:30pm 24.8 20.5 1.0 21 11.4 NNW 13 17 7 9 1010.8 1008.8 0.0
17/06:00pm 25.6 20.5 1.0 20 11.9 NNW 17 24 9 13 1010.4 1008.4 0.0
17/05:30pm 26.8 22.5 1.3 19 12.5 WNW 13 19 7 10 1010.1 1008.1 0.0
17/05:00pm 27.4 22.3 1.0 18 12.9 NW 17 26 9 14 1009.8 1007.7 0.0

Other Formats:

Comma delimited format used in spreadsheet applications
http://www.bom.gov.au/fwo/IDW60801/IDW60801.94449.axf

JavaScript Object Notation format (JSON) in row-major order
http://www.bom.gov.au/fwo/IDW60801/IDW60801.94449.json